This is the latest recevied weather packets stored in our database for station/object N2XP-3. If no packets are shown the sender has not sent any weather packets the latest 10 day(s).
| Time | Temp. | Humidity | Pressure | Rain* | Wind** | Luminosity | Snow |
|---|---|---|---|---|---|---|---|
| 1777733167 | 12.78° C | 61% | 1010.3 hPa | 0 mm | 2.68 m/s, 3° | - | - |
| 1777732560 | 13.33° C | 61% | 1010.3 hPa | 0 mm | 1.34 m/s, 8° | - | - |
| 1777731946 | 13.89° C | 62% | 1010.2 hPa | 0 mm | 1.34 m/s, 243° | - | - |
| 1777731686 | 13.33° C | 63% | 1010.3 hPa | 0 mm | 0.45 m/s, 264° | - | - |
| 1777731646 | 13.33° C | 63% | 1010.3 hPa | 0 mm | 0.45 m/s, 264° | - | - |
| 1777731347 | 13.33° C | 64% | 1010.4 hPa | 0 mm | 2.68 m/s, 312° | - | - |
| 1777731045 | 12.22° C | 68% | 1010.4 hPa | 0 mm | 0.89 m/s, 46° | - | - |
| 1777730745 | 12.22° C | 66% | 1010.4 hPa | 0 mm | 1.34 m/s, 93° | - | - |
| 1777730441 | 12.22° C | 65% | 1010.3 hPa | 0 mm | 4.47 m/s, 35° | - | - |
| 1777730132 | 12.78° C | 67% | 1010.2 hPa | 0 mm | 2.68 m/s, 49° | - | - |
| 1777729832 | 12.22° C | 69% | 1010.4 hPa | 0 mm | 2.68 m/s, 139° | - | - |
| 1777729533 | 12.22° C | 72% | 1010.3 hPa | 0 mm | 0.89 m/s, 290° | - | - |
| 1777729262 | 12.78° C | 73% | 1010.4 hPa | 0 mm | 2.68 m/s, 165° | - | - |
| 1777729230 | 12.78° C | 73% | 1010.4 hPa | 0 mm | 2.68 m/s, 165° | - | - |
| 1777728930 | 11.67° C | 79% | 1010.3 hPa | 0 mm | 1.79 m/s, 321° | - | - |
| 1777728822 | 11.11° C | 83% | 1010.3 hPa | 0 mm | 2.68 m/s, 24° | - | - |
| 1777728694 | 11.11° C | 83% | 1010.3 hPa | 0 mm | 2.68 m/s, 24° | - | - |
| 1777728631 | 11.11° C | 83% | 1010.3 hPa | 0 mm | 2.68 m/s, 24° | - | - |
| 1777728373 | 10° C | 88% | 1010.3 hPa | 0 mm | 0.89 m/s, 165° | - | - |
| 1777728327 | 10° C | 88% | 1010.3 hPa | 0 mm | 0.89 m/s, 165° | - | - |
| 1777728028 | 9.44° C | 88% | 1010.4 hPa | 0 mm | 0.89 m/s, 65° | - | - |
| 1777727729 | 8.89° C | 89% | 1010.3 hPa | 0 mm | 1.34 m/s, 162° | - | - |
| 1777727421 | 8.33° C | 88% | 1010.4 hPa | 0 mm | 1.34 m/s, 65° | - | - |
| 1777727120 | 8.33° C | 88% | 1010.5 hPa | 0 mm | 0 m/s | - | - |
| 1777726512 | 8.33° C | 87% | 1010.5 hPa | 0 mm | 1.79 m/s, 38° | - | - |
* Rain latest hour (hover to see other rain measurements)
** Current wind speed in m/s (hover to see current wind gust speed)